createdAt,value
2023-03-19T00:00:54.054Z,13.17
2023-03-19T00:03:22.295Z,13.20
2023-03-19T00:05:53.860Z,12.27
2023-03-19T00:08:21.547Z,12.23
2023-03-19T00:10:49.253Z,11.97
2023-03-19T00:13:16.408Z,11.13
2023-03-19T00:16:03.946Z,10.57
2023-03-19T00:23:27.129Z,11.52
2023-03-19T00:25:55.573Z,12.53
2023-03-19T00:28:23.132Z,12.80
2023-03-19T00:30:50.593Z,12.67
2023-03-19T00:33:18.315Z,14.63
2023-03-19T00:35:46.365Z,13.90
2023-03-19T00:38:14.094Z,13.43
2023-03-19T00:40:43.140Z,13.80
2023-03-19T00:43:11.006Z,14.17
2023-03-19T00:45:39.062Z,12.83
2023-03-19T00:48:07.984Z,12.80
2023-03-19T00:50:35.998Z,12.80
2023-03-19T00:53:04.111Z,12.83
2023-03-19T00:55:32.667Z,12.23
2023-03-19T00:58:00.882Z,14.70
2023-03-19T01:00:28.749Z,13.90
2023-03-19T01:02:56.730Z,13.83
2023-03-19T01:05:24.954Z,13.77
2023-03-19T01:07:52.701Z,13.87
2023-03-19T01:10:42.968Z,13.93
2023-03-19T01:13:11.028Z,14.97
2023-03-19T01:15:42.599Z,13.00
2023-03-19T01:18:10.739Z,12.30
2023-03-19T01:20:39.335Z,13.73
2023-03-19T01:23:07.905Z,13.03
2023-03-19T01:25:36.424Z,13.17
2023-03-19T01:28:04.983Z,14.97
2023-03-19T01:30:32.898Z,14.57
2023-03-19T01:33:00.663Z,14.30
2023-03-19T01:35:29.056Z,14.57
2023-03-19T01:37:56.880Z,13.47
2023-03-19T01:40:24.639Z,14.87
2023-03-19T01:43:16.157Z,13.57
2023-03-19T01:45:43.638Z,13.20
2023-03-19T01:48:37.735Z,13.60
2023-03-19T01:51:07.547Z,14.47
2023-03-19T01:53:38.803Z,13.80
2023-03-19T01:56:36.609Z,13.23
2023-03-19T01:59:07.654Z,14.00
2023-03-19T02:01:35.912Z,15.33
2023-03-19T02:04:03.832Z,14.73
2023-03-19T02:06:31.148Z,14.03
2023-03-19T02:08:58.842Z,14.77
2023-03-19T02:11:27.298Z,13.93
2023-03-19T02:13:54.437Z,15.43
2023-03-19T02:16:21.775Z,15.20
2023-03-19T02:18:49.594Z,15.50
2023-03-19T02:21:17.713Z,15.03
2023-03-19T02:24:17.106Z,15.03
2023-03-19T02:26:43.764Z,14.30
2023-03-19T02:29:11.911Z,15.60
2023-03-19T02:31:40.253Z,15.10
2023-03-19T02:34:27.418Z,14.77
2023-03-19T02:37:19.628Z,15.23
2023-03-19T02:39:49.573Z,14.20
2023-03-19T02:42:16.945Z,14.53
2023-03-19T02:44:44.810Z,15.47
2023-03-19T02:47:12.367Z,14.80
2023-03-19T02:49:39.912Z,14.43
2023-03-19T02:52:09.615Z,15.80
2023-03-19T02:54:37.283Z,14.80
2023-03-19T02:57:06.929Z,14.70
2023-03-19T02:59:34.594Z,13.27
2023-03-19T03:02:02.248Z,14.60
2023-03-19T03:04:30.517Z,14.57
2023-03-19T03:06:58.397Z,14.20
2023-03-19T03:09:27.314Z,14.97
2023-03-19T03:11:55.047Z,14.83
2023-03-19T03:14:23.018Z,14.87
2023-03-19T03:16:51.532Z,14.00
2023-03-19T03:19:18.735Z,13.00
2023-03-19T03:21:46.734Z,15.23
2023-03-19T03:24:15.293Z,14.23
2023-03-19T03:26:46.051Z,14.73
2023-03-19T03:29:13.970Z,13.17
2023-03-19T03:31:41.704Z,13.87
2023-03-19T03:34:10.230Z,14.27
2023-03-19T03:36:40.900Z,14.73
2023-03-19T03:39:11.895Z,14.63
2023-03-19T03:41:40.779Z,14.23
2023-03-19T03:44:08.581Z,14.90
2023-03-19T03:46:36.868Z,14.03
2023-03-19T03:49:05.121Z,14.60
2023-03-19T03:51:32.945Z,14.27
2023-03-19T03:54:01.058Z,14.50
2023-03-19T03:56:28.817Z,14.33
2023-03-19T03:58:56.998Z,14.33
2023-03-19T04:01:24.652Z,15.17
2023-03-19T04:03:52.775Z,15.13
2023-03-19T04:06:22.784Z,14.80
2023-03-19T04:08:51.231Z,14.57
2023-03-19T04:11:19.356Z,15.47
2023-03-19T04:13:47.532Z,14.13
2023-03-19T04:16:15.851Z,15.17
2023-03-19T04:18:43.924Z,14.03
2023-03-19T04:21:11.907Z,15.30
2023-03-19T04:23:39.942Z,15.37
2023-03-19T04:26:10.710Z,15.93
2023-03-19T04:28:38.818Z,16.90
2023-03-19T04:31:08.210Z,15.60
2023-03-19T04:33:36.318Z,16.97
2023-03-19T04:36:04.962Z,16.00
2023-03-19T04:38:32.946Z,15.90
2023-03-19T04:41:01.732Z,15.87
2023-03-19T04:43:30.402Z,15.93
2023-03-19T04:45:59.090Z,14.03
2023-03-19T04:48:27.632Z,15.83
2023-03-19T04:50:57.225Z,16.63
2023-03-19T04:53:25.021Z,15.70
2023-03-19T04:55:53.274Z,16.00
2023-03-19T04:58:21.509Z,15.37
2023-03-19T05:00:49.299Z,16.40
2023-03-19T05:03:17.174Z,15.07
2023-03-19T05:05:45.328Z,15.57
2023-03-19T05:08:13.824Z,15.97
2023-03-19T05:10:42.050Z,14.87
2023-03-19T05:13:09.680Z,15.00
2023-03-19T05:15:37.966Z,14.53
2023-03-19T05:18:06.256Z,15.23
2023-03-19T05:20:34.782Z,15.83
2023-03-19T05:23:05.540Z,15.10
2023-03-19T05:25:35.315Z,15.77
2023-03-19T05:28:04.224Z,15.33
2023-03-19T05:30:32.224Z,15.80
2023-03-19T05:32:59.917Z,15.63
2023-03-19T05:35:28.041Z,15.87
2023-03-19T05:37:59.351Z,17.23
2023-03-19T05:40:30.352Z,16.10
2023-03-19T05:42:57.910Z,17.03
2023-03-19T05:45:25.759Z,16.73
2023-03-19T05:47:53.820Z,16.30
2023-03-19T05:50:26.789Z,17.37
2023-03-19T05:52:54.961Z,16.60
2023-03-19T05:55:24.502Z,15.70
2023-03-19T05:57:52.531Z,16.33
2023-03-19T06:00:22.656Z,17.63
2023-03-19T06:02:51.479Z,17.13
2023-03-19T06:05:42.475Z,16.73
2023-03-19T06:08:13.107Z,17.07
2023-03-19T06:10:40.950Z,17.00
2023-03-19T06:13:08.963Z,17.27
2023-03-19T06:15:36.870Z,17.33
2023-03-19T06:18:08.482Z,16.20
2023-03-19T06:20:36.502Z,16.63
2023-03-19T06:23:10.196Z,17.47
2023-03-19T06:25:45.481Z,15.77
2023-03-19T06:28:14.928Z,16.27
2023-03-19T06:30:42.911Z,16.53
2023-03-19T06:33:16.517Z,18.13
2023-03-19T06:35:44.442Z,16.60
2023-03-19T06:38:13.355Z,16.73
2023-03-19T06:40:41.205Z,17.23
2023-03-19T06:43:09.446Z,16.13
2023-03-19T06:45:37.482Z,17.30
2023-03-19T06:48:05.947Z,17.97
2023-03-19T06:50:33.824Z,18.10
2023-03-19T06:53:02.496Z,16.97
2023-03-19T06:55:31.217Z,17.93
2023-03-19T06:57:59.491Z,17.60
2023-03-19T07:00:27.957Z,17.87
2023-03-19T07:02:55.900Z,17.13
2023-03-19T07:05:23.896Z,18.00
2023-03-19T07:07:52.396Z,16.97
2023-03-19T07:10:21.541Z,18.63
2023-03-19T07:12:49.765Z,18.50
2023-03-19T07:15:17.829Z,19.10
2023-03-19T07:17:47.208Z,18.73
2023-03-19T07:20:15.739Z,18.20
2023-03-19T07:22:43.393Z,18.20
2023-03-19T07:25:11.993Z,15.50
2023-03-19T07:27:39.489Z,17.17
2023-03-19T07:30:10.074Z,16.73
2023-03-19T07:32:38.930Z,15.87
2023-03-19T07:35:10.403Z,17.23
2023-03-19T07:37:38.312Z,16.77
2023-03-19T07:40:07.884Z,15.97
2023-03-19T07:42:36.579Z,16.23
2023-03-19T07:45:06.018Z,17.17
2023-03-19T07:47:34.169Z,17.23
2023-03-19T07:50:01.787Z,15.90
2023-03-19T07:52:29.891Z,15.90
2023-03-19T07:55:00.657Z,15.57
2023-03-19T07:57:28.367Z,15.57
2023-03-19T07:59:56.583Z,16.30
2023-03-19T08:02:24.820Z,15.90
2023-03-19T08:04:53.228Z,15.97
2023-03-19T08:07:21.928Z,15.90
2023-03-19T08:09:49.651Z,15.87
2023-03-19T08:12:17.615Z,15.47
2023-03-19T08:14:45.359Z,16.10
2023-03-19T08:17:13.757Z,15.50
2023-03-19T08:19:41.894Z,15.57
2023-03-19T08:22:13.410Z,14.07
2023-03-19T08:24:41.099Z,15.00
2023-03-19T08:27:09.418Z,15.53
2023-03-19T08:29:37.461Z,14.87
2023-03-19T08:32:05.690Z,15.13
2023-03-19T08:34:33.482Z,14.27
2023-03-19T08:37:01.507Z,14.37
2023-03-19T08:39:29.386Z,13.13
2023-03-19T08:41:57.638Z,14.33
2023-03-19T08:44:25.296Z,15.00
2023-03-19T08:46:53.682Z,13.33
2023-03-19T08:49:21.543Z,13.73
2023-03-19T08:51:49.852Z,14.43
2023-03-19T08:54:17.801Z,14.93
2023-03-19T08:56:45.719Z,16.00
2023-03-19T08:59:13.674Z,13.70
2023-03-19T09:01:41.827Z,13.93
2023-03-19T09:04:09.916Z,13.93
2023-03-19T09:06:37.942Z,14.03
2023-03-19T09:09:06.515Z,13.33
2023-03-19T09:11:34.580Z,12.67
2023-03-19T09:14:02.664Z,11.60
2023-03-19T09:16:31.454Z,12.07
2023-03-19T09:18:59.598Z,12.40
2023-03-19T09:21:27.727Z,11.33
2023-03-19T09:23:55.555Z,10.97
2023-03-19T09:26:26.236Z,12.20
2023-03-19T09:28:53.861Z,11.23
2023-03-19T09:31:21.643Z,12.30
2023-03-19T09:33:49.837Z,11.27
2023-03-19T09:36:17.928Z,10.93
2023-03-19T09:38:46.552Z,11.57
2023-03-19T09:41:20.876Z,10.90
2023-03-19T09:43:58.914Z,10.53
2023-03-19T09:46:55.260Z,10.60
2023-03-19T09:49:23.565Z,10.23
2023-03-19T09:51:56.145Z,9.93
2023-03-19T09:54:28.436Z,10.63
2023-03-19T09:56:56.067Z,10.17
2023-03-19T09:59:24.159Z,10.23
2023-03-19T10:02:11.035Z,9.57
2023-03-19T10:05:11.702Z,9.23
2023-03-19T10:08:13.575Z,8.93
2023-03-19T10:10:49.451Z,8.53
2023-03-19T10:13:47.338Z,8.88
2023-03-19T10:16:19.172Z,8.43
2023-03-19T10:18:52.150Z,8.30
2023-03-19T10:21:37.403Z,8.47
2023-03-19T10:24:23.086Z,7.10
2023-03-19T10:26:52.833Z,7.63
2023-03-19T10:29:20.927Z,7.57
2023-03-19T10:31:50.317Z,7.20
2023-03-19T10:34:32.815Z,7.03
2023-03-19T10:37:01.704Z,7.20
2023-03-19T10:39:29.367Z,6.90
2023-03-19T10:42:10.437Z,6.33
2023-03-19T10:44:48.815Z,6.67
2023-03-19T10:47:18.204Z,6.87
2023-03-19T10:49:45.888Z,7.63
2023-03-19T10:52:22.907Z,8.00
2023-03-19T10:54:53.309Z,8.03
2023-03-19T10:57:28.445Z,7.97
2023-03-19T10:59:56.557Z,7.87
2023-03-19T11:02:31.180Z,7.30
2023-03-19T11:05:22.333Z,6.53
2023-03-19T11:08:10.527Z,6.47
2023-03-19T11:10:38.728Z,6.85
2023-03-19T11:13:07.626Z,7.47
2023-03-19T11:15:38.805Z,7.07
2023-03-19T11:18:24.340Z,6.57
2023-03-19T11:21:02.426Z,6.93
2023-03-19T11:23:30.475Z,6.30
2023-03-19T11:26:21.724Z,6.53
2023-03-19T11:28:52.612Z,6.72
2023-03-19T11:31:20.965Z,7.15
2023-03-19T11:34:03.481Z,7.95
2023-03-19T11:36:50.195Z,7.28
2023-03-19T11:39:37.305Z,7.72
2023-03-19T11:42:04.136Z,8.50
2023-03-19T11:44:40.294Z,7.65
2023-03-19T11:47:27.127Z,7.32
2023-03-19T11:49:54.377Z,6.97
2023-03-19T11:52:53.360Z,7.30
2023-03-19T11:55:27.959Z,7.90
2023-03-19T11:58:19.202Z,7.60
2023-03-19T12:00:57.239Z,8.07
2023-03-19T12:03:28.744Z,8.40
2023-03-19T12:06:04.563Z,7.97
2023-03-19T12:08:43.763Z,7.17
2023-03-19T12:11:43.787Z,8.07
2023-03-19T12:14:35.852Z,8.47
2023-03-19T12:17:17.644Z,8.00
2023-03-19T12:20:05.627Z,8.03
2023-03-19T12:22:53.778Z,9.03
2023-03-19T12:25:39.293Z,8.83
2023-03-19T12:28:21.128Z,8.93
2023-03-19T12:30:57.896Z,8.93
2023-03-19T12:33:43.710Z,8.93
2023-03-19T12:36:14.433Z,9.00
2023-03-19T12:38:48.535Z,9.07
2023-03-19T12:41:20.600Z,8.47
2023-03-19T12:44:02.431Z,8.93
2023-03-19T12:46:32.989Z,9.07
2023-03-19T12:49:11.710Z,10.03
2023-03-19T12:51:41.901Z,8.90
2023-03-19T12:54:12.988Z,9.83
2023-03-19T12:56:40.727Z,9.33
2023-03-19T12:59:28.959Z,9.50
2023-03-19T13:02:25.965Z,8.43
2023-03-19T13:05:08.400Z,9.13
2023-03-19T13:08:19.032Z,9.85
2023-03-19T13:10:46.654Z,10.57
2023-03-19T13:13:32.285Z,10.45
2023-03-19T13:16:24.176Z,10.77
2023-03-19T13:18:58.396Z,10.37
2023-03-19T13:21:33.094Z,10.70
2023-03-19T13:24:13.297Z,11.73
2023-03-19T13:26:46.129Z,10.85
2023-03-19T13:29:23.806Z,10.45
2023-03-19T13:31:52.063Z,10.45
2023-03-19T13:34:38.604Z,9.60
2023-03-19T13:37:11.221Z,9.48
2023-03-19T13:39:37.943Z,9.70
2023-03-19T13:42:42.909Z,9.53
2023-03-19T13:45:29.876Z,9.77
2023-03-19T13:50:28.353Z,9.67
2023-03-19T13:53:34.701Z,9.77
2023-03-19T13:56:05.684Z,10.83
2023-03-19T13:59:13.794Z,10.27
2023-03-19T14:01:45.735Z,11.00
2023-03-19T14:04:23.615Z,11.37
2023-03-19T14:07:09.799Z,10.83
2023-03-19T14:09:49.524Z,12.07
2023-03-19T14:12:16.431Z,12.23
2023-03-19T14:14:49.542Z,11.27
2023-03-19T14:17:36.165Z,10.53
2023-03-19T14:20:12.733Z,10.38
2023-03-19T14:22:56.461Z,10.83
2023-03-19T14:25:25.197Z,11.00
2023-03-19T14:27:55.025Z,11.93
2023-03-19T14:31:05.507Z,11.10
2023-03-19T14:33:45.989Z,12.43
2023-03-19T14:36:15.126Z,10.27
2023-03-19T14:38:53.826Z,12.33
2023-03-19T14:41:23.248Z,10.93
2023-03-19T14:44:14.190Z,10.40
2023-03-19T14:47:08.761Z,12.23
2023-03-19T14:50:12.419Z,11.07
2023-03-19T14:53:21.588Z,11.10
2023-03-19T14:55:53.091Z,11.30
2023-03-19T14:58:21.278Z,11.53
2023-03-19T15:00:52.201Z,14.97
2023-03-19T15:03:37.349Z,10.73
2023-03-19T15:06:06.095Z,10.37
2023-03-19T15:08:33.808Z,10.93
2023-03-19T15:11:03.479Z,10.50
2023-03-19T15:14:00.914Z,11.17
2023-03-19T15:16:43.061Z,10.98
2023-03-19T15:19:10.654Z,11.60
2023-03-19T15:21:42.013Z,12.17
2023-03-19T15:24:14.648Z,12.13
2023-03-19T15:26:42.808Z,11.30
2023-03-19T15:29:12.435Z,11.33
2023-03-19T15:31:57.646Z,11.20
2023-03-19T15:34:31.322Z,10.53
2023-03-19T15:37:02.638Z,11.00
2023-03-19T15:39:31.505Z,11.97
2023-03-19T15:42:00.914Z,12.90
2023-03-19T15:44:33.961Z,10.77
2023-03-19T15:47:01.925Z,10.90
2023-03-19T15:49:30.732Z,9.90
2023-03-19T15:52:03.576Z,11.00
2023-03-19T15:54:31.263Z,9.67
2023-03-19T15:56:58.893Z,10.07
2023-03-19T15:59:30.077Z,10.10
2023-03-19T16:01:59.761Z,9.20
2023-03-19T16:05:03.564Z,9.10
2023-03-19T16:10:16.576Z,8.90
2023-03-19T16:12:51.089Z,9.40
2023-03-19T16:15:29.058Z,9.20
2023-03-19T16:17:56.973Z,8.97
2023-03-19T16:20:25.296Z,8.90
2023-03-19T16:22:58.661Z,9.53
2023-03-19T16:25:28.661Z,9.40
2023-03-19T16:27:56.011Z,9.10
2023-03-19T16:30:25.892Z,9.13
2023-03-19T16:33:05.435Z,8.97
2023-03-19T16:35:33.281Z,9.60
2023-03-19T16:38:19.278Z,9.03
2023-03-19T16:40:47.586Z,9.90
2023-03-19T16:43:23.117Z,9.10
2023-03-19T16:46:03.994Z,9.23
2023-03-19T16:48:38.195Z,8.73
2023-03-19T16:51:06.781Z,8.13
2023-03-19T16:53:34.651Z,8.43
2023-03-19T16:56:03.440Z,8.17
2023-03-19T16:58:33.091Z,8.97
2023-03-19T17:01:00.885Z,8.03
2023-03-19T17:03:30.361Z,7.43
2023-03-19T17:05:57.542Z,9.40
2023-03-19T17:08:26.480Z,9.63
2023-03-19T17:10:57.145Z,8.97
2023-03-19T17:13:28.450Z,8.80
2023-03-19T17:15:57.670Z,8.97
2023-03-19T17:18:48.512Z,8.83
2023-03-19T17:21:22.280Z,10.27
2023-03-19T17:23:49.968Z,8.73
2023-03-19T17:26:22.720Z,9.90
2023-03-19T17:28:50.772Z,9.33
2023-03-19T17:31:23.071Z,9.60
2023-03-19T17:33:49.890Z,10.37
2023-03-19T17:36:17.068Z,10.53
2023-03-19T17:38:44.739Z,12.03
2023-03-19T17:41:17.206Z,11.00
2023-03-19T17:43:45.494Z,10.70
2023-03-19T17:46:33.249Z,8.50
2023-03-19T17:49:01.339Z,9.13
2023-03-19T17:51:29.039Z,9.50
2023-03-19T17:53:57.093Z,9.87
2023-03-19T17:56:26.042Z,9.90
2023-03-19T17:58:53.905Z,10.50
2023-03-19T18:01:23.617Z,11.60
2023-03-19T18:03:51.670Z,13.67
2023-03-19T18:06:40.538Z,15.40
2023-03-19T18:09:10.147Z,15.40
2023-03-19T18:11:38.606Z,13.23
2023-03-19T18:14:06.266Z,13.90
2023-03-19T18:16:33.986Z,13.13
2023-03-19T18:19:02.536Z,12.70
2023-03-19T18:21:30.172Z,14.17
2023-03-19T18:23:57.656Z,14.10
2023-03-19T18:26:26.163Z,15.50
2023-03-19T18:28:54.292Z,19.70
2023-03-19T18:31:25.797Z,18.90
2023-03-19T18:34:15.900Z,20.23
2023-03-19T18:36:43.092Z,19.17
2023-03-19T18:39:14.712Z,14.57
2023-03-19T18:41:42.514Z,15.70
2023-03-19T18:44:10.289Z,16.67
2023-03-19T18:46:38.900Z,15.57
2023-03-19T18:49:23.106Z,15.30
2023-03-19T18:52:01.555Z,13.90
2023-03-19T18:54:31.266Z,13.13
2023-03-19T18:56:59.756Z,14.67
2023-03-19T18:59:28.629Z,15.53
2023-03-19T19:01:59.452Z,16.03
2023-03-19T19:04:29.678Z,14.70
2023-03-19T19:06:58.431Z,14.47
2023-03-19T19:09:26.709Z,15.23
2023-03-19T19:11:54.771Z,13.97
2023-03-19T19:14:22.923Z,14.57
2023-03-19T19:16:50.953Z,14.40
2023-03-19T19:19:22.656Z,13.53
2023-03-19T19:21:53.793Z,14.10
2023-03-19T19:24:22.171Z,13.97
2023-03-19T19:26:51.717Z,13.97
2023-03-19T19:29:29.474Z,13.50
2023-03-19T19:31:57.393Z,13.23
2023-03-19T19:34:25.488Z,13.60
2023-03-19T19:36:55.608Z,14.10
2023-03-19T19:39:23.878Z,14.20
2023-03-19T19:41:56.578Z,13.57
2023-03-19T19:44:24.550Z,14.13
2023-03-19T19:46:54.581Z,14.50
2023-03-19T19:49:22.506Z,16.53
2023-03-19T19:51:51.139Z,17.33
2023-03-19T19:54:18.825Z,15.33
2023-03-19T19:56:47.000Z,15.83
2023-03-19T19:59:14.990Z,16.20
2023-03-19T20:01:43.747Z,16.53
2023-03-19T20:04:35.057Z,18.27
2023-03-19T20:07:03.284Z,18.50
2023-03-19T20:09:31.450Z,23.87
2023-03-19T20:11:59.350Z,18.57
2023-03-19T20:14:27.091Z,16.60
2023-03-19T20:16:58.400Z,15.83
2023-03-19T20:19:25.873Z,16.73
2023-03-19T20:21:54.440Z,15.90
2023-03-19T20:24:22.618Z,17.27
2023-03-19T20:26:50.526Z,17.63
2023-03-19T20:29:18.714Z,19.50
2023-03-19T20:31:46.813Z,17.93
2023-03-19T20:34:22.438Z,18.80
2023-03-19T20:36:56.490Z,18.50
2023-03-19T20:39:24.300Z,19.23
2023-03-19T20:41:51.894Z,17.90
2023-03-19T20:44:22.430Z,17.77
2023-03-19T20:46:49.678Z,16.00
2023-03-19T20:49:17.444Z,19.10
2023-03-19T20:51:46.525Z,17.30
2023-03-19T20:54:14.633Z,18.37
2023-03-19T20:56:41.994Z,17.00
2023-03-19T20:59:11.729Z,16.90
2023-03-19T21:01:40.171Z,16.73
2023-03-19T21:04:12.176Z,17.60
2023-03-19T21:06:52.545Z,16.57
2023-03-19T21:09:21.636Z,16.63
2023-03-19T21:11:49.312Z,16.23
2023-03-19T21:14:16.952Z,17.83
2023-03-19T21:16:45.539Z,17.30
2023-03-19T21:19:13.460Z,17.03
2023-03-19T21:21:42.880Z,16.43
2023-03-19T21:24:20.090Z,17.23
2023-03-19T21:26:54.805Z,16.53
2023-03-19T21:29:31.260Z,17.27
2023-03-19T21:31:59.606Z,17.65
2023-03-19T21:34:28.539Z,16.97
2023-03-19T21:36:56.421Z,17.10
2023-03-19T21:39:23.933Z,16.70
2023-03-19T21:41:51.116Z,17.67
2023-03-19T21:44:19.990Z,18.43
2023-03-19T21:46:47.820Z,19.13
2023-03-19T21:49:16.400Z,17.77
2023-03-19T21:51:44.313Z,18.10
2023-03-19T21:54:12.436Z,17.90
2023-03-19T21:56:40.903Z,18.27
2023-03-19T21:59:33.796Z,18.43
2023-03-19T22:02:01.908Z,18.07
2023-03-19T22:04:29.834Z,17.33
2023-03-19T22:06:57.585Z,18.03
2023-03-19T22:09:25.431Z,18.97
2023-03-19T22:11:53.463Z,18.90
2023-03-19T22:14:28.236Z,19.77
2023-03-19T22:16:56.264Z,19.77
2023-03-19T22:19:23.929Z,19.47
2023-03-19T22:21:52.237Z,20.13
2023-03-19T22:24:20.189Z,20.37
2023-03-19T22:26:49.111Z,19.63
2023-03-19T22:29:23.719Z,18.97
2023-03-19T22:31:51.781Z,18.80
2023-03-19T22:34:21.555Z,17.30
2023-03-19T22:36:49.702Z,17.23
2023-03-19T22:39:16.951Z,17.73
2023-03-19T22:41:47.962Z,18.43
2023-03-19T22:44:28.393Z,17.40
2023-03-19T22:46:56.535Z,18.03
2023-03-19T22:49:24.853Z,18.13
2023-03-19T22:51:52.968Z,17.53
2023-03-19T22:54:21.243Z,18.00
2023-03-19T22:56:50.389Z,18.50
2023-03-19T22:59:18.940Z,18.20
2023-03-19T23:01:46.800Z,18.37
2023-03-19T23:04:22.798Z,16.23
2023-03-19T23:06:50.814Z,17.00
2023-03-19T23:09:20.637Z,17.63
2023-03-19T23:11:49.463Z,16.93
2023-03-19T23:14:28.914Z,17.60
2023-03-19T23:19:39.157Z,17.70
2023-03-19T23:22:06.792Z,17.90
2023-03-19T23:24:34.925Z,17.50
2023-03-19T23:27:03.213Z,17.47
2023-03-19T23:29:33.123Z,17.10
2023-03-19T23:32:00.977Z,16.97
2023-03-19T23:34:28.846Z,16.30
2023-03-19T23:36:56.858Z,16.90
2023-03-19T23:39:24.053Z,17.00
2023-03-19T23:41:53.582Z,16.80
2023-03-19T23:44:21.249Z,17.77
2023-03-19T23:46:49.385Z,18.17
2023-03-19T23:49:29.017Z,16.73
2023-03-19T23:51:57.524Z,16.83
2023-03-19T23:54:30.202Z,16.93
2023-03-19T23:56:59.653Z,16.93
2023-03-19T23:59:27.602Z,17.83
